createdAt,value
2022-12-15T00:02:27.808Z,36.90
2022-12-15T00:05:13.286Z,35.07
2022-12-15T00:07:58.704Z,34.30
2022-12-15T00:10:44.327Z,34.37
2022-12-15T00:13:31.038Z,36.47
2022-12-15T00:16:18.482Z,35.40
2022-12-15T00:19:04.282Z,39.70
2022-12-15T00:21:50.144Z,43.27
2022-12-15T00:24:35.519Z,41.47
2022-12-15T00:27:21.576Z,42.00
2022-12-15T00:30:07.054Z,36.30
2022-12-15T00:32:53.986Z,42.60
2022-12-15T00:35:39.524Z,36.60
2022-12-15T00:38:29.124Z,43.53
2022-12-15T00:40:59.789Z,43.60
2022-12-15T00:43:28.612Z,36.60
2022-12-15T00:46:14.584Z,43.90
2022-12-15T00:48:44.343Z,35.47
2022-12-15T00:51:11.676Z,42.80
2022-12-15T00:53:57.121Z,35.53
2022-12-15T00:56:42.709Z,36.45
2022-12-15T00:59:30.283Z,35.77
2022-12-15T01:02:15.818Z,38.03
2022-12-15T01:05:02.853Z,42.50
2022-12-15T01:07:49.626Z,35.00
2022-12-15T01:10:36.336Z,36.83
2022-12-15T01:13:22.236Z,36.03
2022-12-15T01:16:07.832Z,39.60
2022-12-15T01:18:53.556Z,37.10
2022-12-15T01:21:25.219Z,37.90
2022-12-15T01:23:53.638Z,34.37
2022-12-15T01:26:21.659Z,38.93
2022-12-15T01:28:49.632Z,37.30
2022-12-15T01:31:17.856Z,38.10
2022-12-15T01:33:45.810Z,34.33
2022-12-15T01:36:14.383Z,33.10
2022-12-15T01:38:45.958Z,33.60
2022-12-15T01:41:15.340Z,31.30
2022-12-15T01:43:43.402Z,36.67
2022-12-15T01:46:17.105Z,31.97
2022-12-15T01:48:50.142Z,33.30
2022-12-15T01:51:25.576Z,29.23
2022-12-15T01:54:00.597Z,31.53
2022-12-15T01:56:35.518Z,33.83
2022-12-15T01:59:08.471Z,33.20
2022-12-15T02:01:36.690Z,37.93
2022-12-15T02:04:05.398Z,41.20
2022-12-15T02:06:33.343Z,28.03
2022-12-15T02:09:03.279Z,29.23
2022-12-15T02:11:51.193Z,35.67
2022-12-15T02:14:28.146Z,31.10
2022-12-15T02:17:08.748Z,33.53
2022-12-15T02:20:27.136Z,28.97
2022-12-15T02:23:16.234Z,30.70
2022-12-15T02:26:01.924Z,33.67
2022-12-15T02:28:42.970Z,34.47
2022-12-15T02:31:34.532Z,33.20
2022-12-15T02:34:10.008Z,30.50
2022-12-15T10:41:03.052Z,40.63
2022-12-15T10:43:37.803Z,48.50
2022-12-15T10:46:14.810Z,53.70
2022-12-15T10:48:44.020Z,43.77
2022-12-15T10:51:20.318Z,47.60
2022-12-15T10:53:50.433Z,51.00
2022-12-15T10:56:30.626Z,45.67
2022-12-15T10:59:03.660Z,47.23
2022-12-15T11:01:33.891Z,48.87
2022-12-15T11:04:02.727Z,47.23
2022-12-15T11:06:33.969Z,42.17
2022-12-15T11:09:21.918Z,45.83
2022-12-15T11:12:11.998Z,50.20
2022-12-15T11:14:45.872Z,50.60
2022-12-15T11:17:18.289Z,51.97
2022-12-15T11:19:58.253Z,48.70
2022-12-15T11:22:41.129Z,45.23
2022-12-15T11:25:26.161Z,48.60
2022-12-15T11:27:58.652Z,48.97
2022-12-15T11:30:32.479Z,40.97
2022-12-15T11:33:01.836Z,55.60
2022-12-15T11:35:34.749Z,48.30
2022-12-15T11:38:08.869Z,47.47
2022-12-15T11:40:40.767Z,46.93
2022-12-15T11:43:32.070Z,48.33
2022-12-15T11:46:22.734Z,49.93
2022-12-15T11:49:18.260Z,43.00
2022-12-15T11:51:53.636Z,51.97
2022-12-15T11:54:28.277Z,45.57
2022-12-15T11:57:03.152Z,45.47
2022-12-15T11:59:52.740Z,45.13
2022-12-15T12:02:40.093Z,55.47
2022-12-15T12:05:38.962Z,50.17
2022-12-15T12:08:24.528Z,50.10
2022-12-15T12:11:00.623Z,48.00
2022-12-15T12:13:36.386Z,47.10
2022-12-15T12:16:19.501Z,47.03
2022-12-15T12:18:56.662Z,49.00
2022-12-15T12:21:27.805Z,48.10
2022-12-15T12:24:00.458Z,50.27
2022-12-15T12:26:36.601Z,49.20
2022-12-15T12:29:13.091Z,56.40
2022-12-15T12:32:00.564Z,45.63
2022-12-15T12:34:40.878Z,43.23
2022-12-15T12:37:17.671Z,51.30
2022-12-15T12:39:46.727Z,53.13
2022-12-15T12:42:21.449Z,55.30
2022-12-15T12:44:49.567Z,53.43
2022-12-15T12:47:25.863Z,50.03
2022-12-15T12:49:57.877Z,50.97
2022-12-15T12:52:31.176Z,47.90
2022-12-15T12:55:01.275Z,53.17
2022-12-15T12:57:36.958Z,49.30
2022-12-15T13:00:16.568Z,48.03
2022-12-15T13:03:14.587Z,52.92
2022-12-15T13:05:45.762Z,47.80
2022-12-15T13:08:51.325Z,51.60
2022-12-15T13:12:03.188Z,55.65
2022-12-15T13:14:48.364Z,45.63
2022-12-15T13:17:28.416Z,57.03
2022-12-15T13:20:25.037Z,54.10
2022-12-15T13:22:55.587Z,54.10
2022-12-15T13:25:35.764Z,49.73
2022-12-15T13:28:30.590Z,43.20
2022-12-15T13:31:27.722Z,54.40
2022-12-15T13:34:18.891Z,53.67
2022-12-15T13:36:58.469Z,51.83
2022-12-15T13:39:57.361Z,59.30
2022-12-15T13:42:52.876Z,48.97
2022-12-15T13:45:43.159Z,49.13
2022-12-15T13:48:36.705Z,52.33
2022-12-15T13:51:18.995Z,48.50
2022-12-15T13:53:52.172Z,53.40
2022-12-15T13:56:40.253Z,54.10
2022-12-15T13:59:17.438Z,51.00
2022-12-15T14:01:50.905Z,54.00
2022-12-15T14:04:20.247Z,54.93
2022-12-15T14:06:50.890Z,52.83
2022-12-15T14:09:23.450Z,56.47
2022-12-15T14:11:54.310Z,57.35
2022-12-15T14:14:26.224Z,51.75
2022-12-15T14:16:57.811Z,55.57
2022-12-15T14:19:27.159Z,57.70
2022-12-15T14:21:56.887Z,52.57
2022-12-15T14:24:44.287Z,54.77
2022-12-15T14:27:23.989Z,65.03
2022-12-15T14:30:09.376Z,50.67
2022-12-15T14:32:38.183Z,55.73
2022-12-15T14:35:07.341Z,52.80
2022-12-15T14:37:35.385Z,55.50
2022-12-15T14:40:03.676Z,52.07
2022-12-15T14:42:33.259Z,49.83
2022-12-15T14:45:01.315Z,54.72
2022-12-15T14:47:32.910Z,62.60
2022-12-15T14:50:03.335Z,50.53
2022-12-15T14:52:36.375Z,50.33
2022-12-15T14:55:26.224Z,51.28
2022-12-15T14:57:55.825Z,55.45
2022-12-15T15:00:29.963Z,55.77
2022-12-15T15:03:20.128Z,51.53
2022-12-15T15:05:51.038Z,53.80
2022-12-15T15:08:27.301Z,59.20
2022-12-15T15:10:57.001Z,50.43
2022-12-15T15:13:35.960Z,59.70
2022-12-15T15:16:10.053Z,49.08
2022-12-15T15:18:38.253Z,55.73
2022-12-15T15:21:08.819Z,51.97
2022-12-15T15:23:40.988Z,49.13
2022-12-15T15:26:10.320Z,52.00
2022-12-15T15:28:41.723Z,51.63
2022-12-15T15:31:32.684Z,51.30
2022-12-15T15:34:06.379Z,50.43
2022-12-15T15:36:36.750Z,55.50
2022-12-15T15:39:11.155Z,53.77
2022-12-15T15:41:39.208Z,56.53
2022-12-15T15:44:14.586Z,52.90
2022-12-15T15:46:48.529Z,54.10
2022-12-15T15:49:20.102Z,57.50
2022-12-15T15:51:48.396Z,49.40
2022-12-15T15:54:19.298Z,47.93
2022-12-15T15:56:47.383Z,47.67
2022-12-15T15:59:20.844Z,47.87
2022-12-15T16:01:54.818Z,64.30
2022-12-15T16:04:23.095Z,57.00
2022-12-15T16:06:51.835Z,60.00
2022-12-15T16:09:20.095Z,54.13
2022-12-15T16:11:48.194Z,54.90
2022-12-15T16:14:18.948Z,65.43
2022-12-15T16:16:47.191Z,57.10
2022-12-15T16:19:15.406Z,54.27
2022-12-15T16:21:44.009Z,62.30
2022-12-15T16:24:16.100Z,50.70
2022-12-15T16:26:48.452Z,65.90
2022-12-15T16:29:20.061Z,57.43
2022-12-15T16:31:48.922Z,67.73
2022-12-15T16:34:17.759Z,54.30
2022-12-15T16:36:46.309Z,64.63
2022-12-15T16:39:26.119Z,53.50
2022-12-15T16:41:55.357Z,58.00
2022-12-15T16:44:24.721Z,63.60
2022-12-15T16:46:52.967Z,61.43
2022-12-15T16:49:20.956Z,62.27
2022-12-15T16:51:51.628Z,59.92
2022-12-15T16:54:23.409Z,61.60
2022-12-15T16:56:52.891Z,57.60
2022-12-15T16:59:33.011Z,67.47
2022-12-15T17:02:04.091Z,55.70
2022-12-15T17:04:32.458Z,55.30
2022-12-15T17:07:00.452Z,51.57
2022-12-15T17:09:29.038Z,59.23
2022-12-15T17:11:57.709Z,61.53
2022-12-15T17:14:25.666Z,58.43
2022-12-15T17:16:55.890Z,53.77
2022-12-15T17:19:25.241Z,56.42
2022-12-15T17:21:55.146Z,69.15
2022-12-15T17:24:23.450Z,55.17
2022-12-15T17:26:51.944Z,59.40
2022-12-15T17:29:23.132Z,59.78
2022-12-15T17:31:51.232Z,49.00
2022-12-15T17:34:28.397Z,62.00
2022-12-15T17:36:58.083Z,67.23
2022-12-15T17:39:27.526Z,67.35
2022-12-15T17:42:01.536Z,59.93
2022-12-15T17:44:34.839Z,58.58
2022-12-15T17:47:05.643Z,63.30
2022-12-15T17:49:37.633Z,67.13
2022-12-15T17:52:11.868Z,64.33
2022-12-15T17:54:39.816Z,69.23
2022-12-15T17:57:10.876Z,65.70
2022-12-15T17:59:38.895Z,64.07
2022-12-15T18:02:07.413Z,60.53
2022-12-15T18:04:37.085Z,78.03
2022-12-15T18:07:05.247Z,69.87
2022-12-15T18:09:33.491Z,61.53
2022-12-15T18:12:01.420Z,65.13
2022-12-15T18:14:29.514Z,63.90
2022-12-15T18:16:57.410Z,87.73
2022-12-15T18:19:28.970Z,76.77
2022-12-15T18:22:01.163Z,84.53
2022-12-15T18:24:29.367Z,86.33
2022-12-15T18:26:57.269Z,67.60
2022-12-15T18:29:25.397Z,88.90
2022-12-15T18:31:54.242Z,75.60
2022-12-15T18:34:22.893Z,76.32
2022-12-15T18:36:51.727Z,68.23
2022-12-15T18:39:24.397Z,77.47
2022-12-15T18:41:54.825Z,73.70
2022-12-15T18:44:25.051Z,76.70
2022-12-15T18:46:55.322Z,76.65
2022-12-15T18:49:23.791Z,81.30
2022-12-15T18:51:51.833Z,62.03
2022-12-15T18:54:23.765Z,79.93
2022-12-15T18:56:52.227Z,71.13
2022-12-15T18:59:23.001Z,76.78
2022-12-15T19:01:51.146Z,78.47
2022-12-15T19:04:19.281Z,79.22
2022-12-15T19:06:47.282Z,82.30
2022-12-15T19:09:18.399Z,91.57
2022-12-15T19:12:17.751Z,76.30
2022-12-15T19:14:47.219Z,83.13
2022-12-15T19:17:34.023Z,80.80
2022-12-15T19:20:19.988Z,79.43
2022-12-15T19:22:49.468Z,82.57
2022-12-15T19:25:25.403Z,74.07
2022-12-15T19:27:59.354Z,69.50
2022-12-15T19:30:29.366Z,77.13
2022-12-15T19:32:57.836Z,80.10
2022-12-15T19:35:27.449Z,80.73
2022-12-15T19:37:58.021Z,86.15
2022-12-15T19:40:30.569Z,75.20
2022-12-15T19:43:01.105Z,67.60
2022-12-15T19:45:31.733Z,71.20
2022-12-15T19:48:00.338Z,73.10
2022-12-15T19:50:31.687Z,79.37
2022-12-15T19:53:02.846Z,78.33
2022-12-15T19:55:34.314Z,72.27
2022-12-15T19:58:21.025Z,70.77
2022-12-15T20:00:52.083Z,78.10
2022-12-15T20:03:21.891Z,74.07
2022-12-15T20:05:52.049Z,69.20
2022-12-15T20:08:23.900Z,75.27
2022-12-15T20:10:53.959Z,67.43
2022-12-15T20:13:23.804Z,78.40
2022-12-15T20:15:51.701Z,67.67
2022-12-15T20:18:20.206Z,78.47
2022-12-15T20:20:49.550Z,63.87
2022-12-15T20:23:20.237Z,69.23
2022-12-15T20:25:48.755Z,67.60
2022-12-15T20:28:22.007Z,63.40
2022-12-15T20:30:52.706Z,65.03
2022-12-15T20:33:22.081Z,55.80
2022-12-15T20:35:51.616Z,60.70
2022-12-15T20:38:26.328Z,58.73
2022-12-15T20:40:55.834Z,66.60
2022-12-15T20:43:25.000Z,57.58
2022-12-15T20:46:00.635Z,58.17
2022-12-15T20:48:29.952Z,64.43
2022-12-15T20:51:01.835Z,55.60
2022-12-15T20:53:32.798Z,52.57
2022-12-15T20:56:01.516Z,57.60
2022-12-15T20:58:33.150Z,56.60
2022-12-15T21:01:03.093Z,48.03
2022-12-15T21:03:34.953Z,49.97
2022-12-15T21:06:03.445Z,47.10
2022-12-15T21:08:32.781Z,44.00
2022-12-15T21:11:03.375Z,55.13
2022-12-15T21:13:35.497Z,46.13
2022-12-15T21:16:05.519Z,44.47
2022-12-15T21:19:17.874Z,54.07
2022-12-15T21:21:29.904Z,38.97
2022-12-15T21:23:59.593Z,43.60
2022-12-15T21:26:28.783Z,35.23
2022-12-15T21:29:01.650Z,37.40
2022-12-15T21:31:30.949Z,39.37
2022-12-15T21:33:58.997Z,37.03
2022-12-15T21:36:29.154Z,48.70
2022-12-15T21:38:57.347Z,40.23
2022-12-15T21:41:25.439Z,30.13
2022-12-15T21:43:53.481Z,32.23
2022-12-15T21:46:28.659Z,34.70
2022-12-15T21:49:12.510Z,41.27
2022-12-15T21:51:43.492Z,33.57
2022-12-15T21:54:18.125Z,28.37
2022-12-15T21:56:47.555Z,36.07
2022-12-15T21:59:17.479Z,30.10
2022-12-15T22:01:45.482Z,28.77
2022-12-15T22:04:20.290Z,31.97
2022-12-15T22:06:50.865Z,33.40
2022-12-15T22:09:19.392Z,27.53
2022-12-15T22:11:49.718Z,28.17
2022-12-15T22:14:24.895Z,29.70
2022-12-15T22:16:52.842Z,37.63
2022-12-15T22:19:22.376Z,27.00
2022-12-15T22:21:50.571Z,31.03
2022-12-15T22:24:20.959Z,34.13
2022-12-15T22:26:49.178Z,27.77
2022-12-15T22:29:20.258Z,35.47
2022-12-15T22:31:49.867Z,31.07
2022-12-15T22:34:21.968Z,27.70
2022-12-15T22:36:51.836Z,28.60
2022-12-15T22:39:20.222Z,25.20
2022-12-15T22:41:50.171Z,26.40
2022-12-15T22:44:22.325Z,24.30
2022-12-15T22:46:51.830Z,25.87
2022-12-15T22:49:24.295Z,25.17
2022-12-15T22:51:52.360Z,25.93
2022-12-15T22:54:24.908Z,29.07
2022-12-15T22:56:58.491Z,33.47
2022-12-15T22:59:31.698Z,28.50
2022-12-15T23:02:01.593Z,29.20
2022-12-15T23:04:31.776Z,26.17
2022-12-15T23:07:01.029Z,25.60
2022-12-15T23:09:28.995Z,33.50
2022-12-15T23:11:56.195Z,32.80
2022-12-15T23:14:44.271Z,26.63
2022-12-15T23:17:12.430Z,30.48
2022-12-15T23:19:45.629Z,23.63
2022-12-15T23:22:13.930Z,28.37
2022-12-15T23:24:41.875Z,24.57
2022-12-15T23:27:11.508Z,29.80
2022-12-15T23:29:39.580Z,25.27
2022-12-15T23:32:07.522Z,31.73
2022-12-15T23:34:36.333Z,27.20
2022-12-15T23:37:05.564Z,25.50
2022-12-15T23:39:33.606Z,28.20
2022-12-15T23:42:01.519Z,40.83
2022-12-15T23:44:30.217Z,24.80
2022-12-15T23:46:58.548Z,29.40
2022-12-15T23:49:26.532Z,35.57
2022-12-15T23:51:54.572Z,28.37
2022-12-15T23:54:24.444Z,28.57
2022-12-15T23:56:52.584Z,30.13
2022-12-15T23:59:22.901Z,28.27
